createdAt,value
2017-12-17T00:00:21.263Z,1007.85
2017-12-17T00:01:21.636Z,1007.87
2017-12-17T00:02:22.062Z,1007.89
2017-12-17T00:03:22.476Z,1007.86
2017-12-17T00:04:44.054Z,1007.88
2017-12-17T00:05:23.318Z,1007.90
2017-12-17T00:06:23.742Z,1007.94
2017-12-17T00:07:24.171Z,1007.93
2017-12-17T00:08:24.595Z,1007.88
2017-12-17T00:09:25.006Z,1007.93
2017-12-17T00:10:46.597Z,1007.93
2017-12-17T00:11:25.839Z,1007.93
2017-12-17T00:12:26.259Z,1007.89
2017-12-17T00:13:26.718Z,1007.93
2017-12-17T00:14:27.102Z,1007.93
2017-12-17T00:15:27.526Z,1007.92
2017-12-17T00:16:49.120Z,1007.94
2017-12-17T00:17:28.373Z,1007.93
2017-12-17T00:18:28.789Z,1007.94
2017-12-17T00:19:29.213Z,1007.98
2017-12-17T00:20:29.618Z,1007.97
2017-12-17T00:21:30.051Z,1007.96
2017-12-17T00:22:51.613Z,1008.06
2017-12-17T00:23:30.878Z,1008.01
2017-12-17T00:24:31.314Z,1007.99
2017-12-17T00:25:31.727Z,1007.99
2017-12-17T00:26:32.148Z,1008.05
2017-12-17T00:27:32.599Z,1008.01
2017-12-17T00:28:54.145Z,1008.02
2017-12-17T00:29:33.402Z,1008.05
2017-12-17T00:30:33.832Z,1008.05
2017-12-17T00:31:34.248Z,1008.04
2017-12-17T00:32:34.670Z,1008.14
2017-12-17T00:33:35.081Z,1008.12
2017-12-17T00:34:56.665Z,1008.11
2017-12-17T00:35:35.926Z,1008.08
2017-12-17T00:36:36.342Z,1008.12
2017-12-17T00:37:36.778Z,1008.14
2017-12-17T00:38:37.187Z,1008.19
2017-12-17T00:39:37.605Z,1008.13
2017-12-17T00:40:59.186Z,1008.14
2017-12-17T00:41:38.443Z,1008.18
2017-12-17T00:42:38.866Z,1008.18
2017-12-17T00:43:39.293Z,1008.26
2017-12-17T00:44:39.762Z,1008.26
2017-12-17T00:45:40.129Z,1008.23
2017-12-17T00:47:01.738Z,1008.25
2017-12-17T00:47:40.961Z,1008.26
2017-12-17T00:48:41.379Z,1008.29
2017-12-17T00:49:41.817Z,1008.30
2017-12-17T00:50:42.238Z,1008.27
2017-12-17T00:51:42.640Z,1008.30
2017-12-17T00:53:04.238Z,1008.33
2017-12-17T00:53:43.485Z,1008.29
2017-12-17T00:54:43.903Z,1008.32
2017-12-17T00:55:44.340Z,1008.34
2017-12-17T00:56:44.779Z,1008.33
2017-12-17T00:57:45.161Z,1008.33
2017-12-17T00:59:06.741Z,1008.33
2017-12-17T00:59:46.013Z,1008.32
2017-12-17T01:00:46.435Z,1008.33
2017-12-17T01:01:46.855Z,1008.28
2017-12-17T01:02:47.276Z,1008.34
2017-12-17T01:03:47.693Z,1008.26
2017-12-17T01:05:09.263Z,1008.30
2017-12-17T01:05:48.526Z,1008.33
2017-12-17T01:06:48.943Z,1008.33
2017-12-17T01:07:49.368Z,1008.31
2017-12-17T01:08:49.808Z,1008.35
2017-12-17T01:09:50.210Z,1008.40
2017-12-17T01:11:11.795Z,1008.40
2017-12-17T01:11:51.052Z,1008.38
2017-12-17T01:12:51.469Z,1008.40
2017-12-17T01:13:51.885Z,1008.36
2017-12-17T01:14:52.304Z,1008.37
2017-12-17T01:15:52.725Z,1008.39
2017-12-17T01:17:14.308Z,1008.48
2017-12-17T01:17:53.584Z,1008.43
2017-12-17T01:18:53.993Z,1008.47
2017-12-17T01:19:54.411Z,1008.45
2017-12-17T01:20:54.864Z,1008.42
2017-12-17T01:21:55.259Z,1008.42
2017-12-17T01:23:16.833Z,1008.46
2017-12-17T01:23:56.087Z,1008.46
2017-12-17T01:24:56.505Z,1008.44
2017-12-17T01:25:56.924Z,1008.45
2017-12-17T01:26:57.358Z,1008.50
2017-12-17T01:27:57.781Z,1008.46
2017-12-17T01:29:19.359Z,1008.49
2017-12-17T01:29:58.620Z,1008.46
2017-12-17T01:30:59.041Z,1008.52
2017-12-17T01:31:59.454Z,1008.52
2017-12-17T01:32:59.873Z,1008.50
2017-12-17T01:34:00.299Z,1008.53
2017-12-17T01:35:21.887Z,1008.54
2017-12-17T01:36:01.144Z,1008.54
2017-12-17T01:37:01.566Z,1008.49
2017-12-17T01:38:01.981Z,1008.52
2017-12-17T01:39:02.426Z,1008.53
2017-12-17T01:40:02.820Z,1008.50
2017-12-17T01:41:24.392Z,1008.52
2017-12-17T01:42:03.660Z,1008.50
2017-12-17T01:43:04.088Z,1008.47
2017-12-17T01:44:04.514Z,1008.48
2017-12-17T01:45:04.927Z,1008.48
2017-12-17T01:46:05.338Z,1008.50
2017-12-17T01:47:26.924Z,1008.52
2017-12-17T01:48:06.183Z,1008.52
2017-12-17T01:49:06.602Z,1008.51
2017-12-17T01:50:07.018Z,1008.50
2017-12-17T01:51:07.455Z,1008.53
2017-12-17T01:52:07.879Z,1008.56
2017-12-17T01:53:29.446Z,1008.56
2017-12-17T01:54:08.714Z,1008.54
2017-12-17T01:55:09.130Z,1008.55
2017-12-17T01:56:09.539Z,1008.51
2017-12-17T01:57:09.972Z,1008.54
2017-12-17T01:58:10.387Z,1008.53
2017-12-17T01:59:31.964Z,1008.58
2017-12-17T02:00:11.228Z,1008.56
2017-12-17T02:01:11.653Z,1008.57
2017-12-17T02:02:12.072Z,1008.55
2017-12-17T02:03:12.491Z,1008.62
2017-12-17T02:04:12.914Z,1008.57
2017-12-17T02:05:34.485Z,1008.66
2017-12-17T02:06:13.747Z,1008.60
2017-12-17T02:07:14.168Z,1008.66
2017-12-17T02:08:14.595Z,1008.66
2017-12-17T02:09:15.008Z,1008.61
2017-12-17T02:10:15.430Z,1008.61
2017-12-17T02:11:36.999Z,1008.64
2017-12-17T02:12:16.271Z,1008.64
2017-12-17T02:13:16.702Z,1008.73
2017-12-17T02:14:17.115Z,1008.69
2017-12-17T02:15:17.536Z,1008.70
2017-12-17T02:16:17.954Z,1008.72
2017-12-17T02:17:39.537Z,1008.69
2017-12-17T02:18:18.799Z,1008.72
2017-12-17T02:19:19.212Z,1008.70
2017-12-17T02:20:19.632Z,1008.70
2017-12-17T02:21:20.057Z,1008.71
2017-12-17T02:22:20.478Z,1008.68
2017-12-17T02:23:42.051Z,1008.66
2017-12-17T02:24:21.322Z,1008.67
2017-12-17T02:25:21.732Z,1008.72
2017-12-17T02:26:22.162Z,1008.76
2017-12-17T02:27:22.585Z,1008.74
2017-12-17T02:28:22.991Z,1008.75
2017-12-17T02:29:44.577Z,1008.71
2017-12-17T02:30:23.840Z,1008.78
2017-12-17T02:31:24.267Z,1008.74
2017-12-17T02:32:24.677Z,1008.76
2017-12-17T02:33:25.104Z,1008.76
2017-12-17T02:34:25.519Z,1008.82
2017-12-17T02:35:47.099Z,1008.76
2017-12-17T02:36:26.359Z,1008.77
2017-12-17T02:37:26.783Z,1008.79
2017-12-17T02:38:27.200Z,1008.81
2017-12-17T02:39:27.618Z,1008.83
2017-12-17T02:40:28.047Z,1008.84
2017-12-17T02:41:49.621Z,1008.88
2017-12-17T02:42:28.879Z,1008.84
2017-12-17T02:43:29.302Z,1008.88
2017-12-17T02:44:29.719Z,1008.89
2017-12-17T02:45:30.133Z,1008.86
2017-12-17T02:46:30.557Z,1008.89
2017-12-17T02:47:52.139Z,1008.90
2017-12-17T02:48:31.402Z,1008.94
2017-12-17T02:49:31.833Z,1008.96
2017-12-17T02:50:32.244Z,1008.95
2017-12-17T02:51:32.662Z,1008.98
2017-12-17T02:52:33.089Z,1008.98
2017-12-17T02:53:54.664Z,1009.01
2017-12-17T02:54:33.916Z,1008.99
2017-12-17T02:55:34.339Z,1008.92
2017-12-17T02:56:34.764Z,1008.97
2017-12-17T02:57:35.177Z,1009.04
2017-12-17T02:58:35.611Z,1009.04
2017-12-17T02:59:57.176Z,1009.03
2017-12-17T03:00:36.450Z,1009.02
2017-12-17T03:01:36.870Z,1009.06
2017-12-17T03:02:37.287Z,1009.13
2017-12-17T03:03:37.714Z,1009.02
2017-12-17T03:04:38.123Z,1008.99
2017-12-17T03:05:59.698Z,1008.99
2017-12-17T03:06:38.968Z,1008.96
2017-12-17T03:07:39.386Z,1008.98
2017-12-17T03:08:39.794Z,1008.96
2017-12-17T03:09:40.303Z,1009.03
2017-12-17T03:10:40.641Z,1008.95
2017-12-17T03:12:02.217Z,1009.00
2017-12-17T03:12:41.478Z,1009.03
2017-12-17T03:13:41.901Z,1008.99
2017-12-17T03:14:42.320Z,1009.05
2017-12-17T03:15:42.786Z,1008.99
2017-12-17T03:16:43.221Z,1009.04
2017-12-17T03:18:04.736Z,1008.99
2017-12-17T03:18:44.010Z,1008.98
2017-12-17T03:19:44.463Z,1009.00
2017-12-17T03:20:44.842Z,1008.98
2017-12-17T03:21:45.259Z,1008.96
2017-12-17T03:22:45.680Z,1009.02
2017-12-17T03:24:07.255Z,1009.01
2017-12-17T03:24:46.521Z,1009.02
2017-12-17T03:25:46.939Z,1009.06
2017-12-17T03:26:47.362Z,1009.05
2017-12-17T03:27:47.787Z,1009.10
2017-12-17T03:28:48.204Z,1009.16
2017-12-17T03:30:09.782Z,1009.20
2017-12-17T03:30:49.045Z,1009.12
2017-12-17T03:31:49.456Z,1009.10
2017-12-17T03:32:49.876Z,1009.17
2017-12-17T03:33:50.314Z,1009.14
2017-12-17T03:34:50.728Z,1009.22
2017-12-17T03:36:12.285Z,1009.24
2017-12-17T03:36:51.557Z,1009.21
2017-12-17T03:37:51.985Z,1009.23
2017-12-17T03:38:52.399Z,1009.30
2017-12-17T03:39:52.812Z,1009.35
2017-12-17T03:40:53.234Z,1009.27
2017-12-17T03:42:14.815Z,1009.28
2017-12-17T03:42:54.087Z,1009.30
2017-12-17T03:43:54.490Z,1009.25
2017-12-17T03:44:54.907Z,1009.31
2017-12-17T03:45:55.343Z,1009.32
2017-12-17T03:46:55.745Z,1009.34
2017-12-17T03:48:17.336Z,1009.28
2017-12-17T03:48:56.612Z,1009.28
2017-12-17T03:49:57.016Z,1009.33
2017-12-17T03:50:57.433Z,1009.38
2017-12-17T03:51:57.851Z,1009.35
2017-12-17T03:52:58.263Z,1009.36
2017-12-17T03:54:19.843Z,1009.34
2017-12-17T03:54:59.106Z,1009.32
2017-12-17T03:55:59.527Z,1009.34
2017-12-17T03:56:59.952Z,1009.39
2017-12-17T03:58:00.391Z,1009.39
2017-12-17T03:59:00.800Z,1009.42
2017-12-17T04:00:22.375Z,1009.41
2017-12-17T04:01:01.644Z,1009.45
2017-12-17T04:02:02.049Z,1009.43
2017-12-17T04:03:02.467Z,1009.47
2017-12-17T04:04:02.903Z,1009.42
2017-12-17T04:05:03.302Z,1009.49
2017-12-17T04:06:24.878Z,1009.54
2017-12-17T04:07:04.139Z,1009.51
2017-12-17T04:08:04.562Z,1009.56
2017-12-17T04:09:05.010Z,1009.52
2017-12-17T04:10:05.448Z,1009.47
2017-12-17T04:11:05.817Z,1009.50
2017-12-17T04:12:27.398Z,1009.53
2017-12-17T04:13:06.664Z,1009.52
2017-12-17T04:14:07.084Z,1009.54
2017-12-17T04:15:07.499Z,1009.45
2017-12-17T04:16:07.917Z,1009.52
2017-12-17T04:17:08.375Z,1009.49
2017-12-17T04:18:29.913Z,1009.49
2017-12-17T04:19:09.178Z,1009.50
2017-12-17T04:20:09.597Z,1009.54
2017-12-17T04:21:10.023Z,1009.56
2017-12-17T04:22:10.452Z,1009.55
2017-12-17T04:23:10.853Z,1009.57
2017-12-17T04:24:32.431Z,1009.58
2017-12-17T04:25:11.696Z,1009.57
2017-12-17T04:26:12.117Z,1009.57
2017-12-17T04:27:12.534Z,1009.62
2017-12-17T04:28:12.979Z,1009.64
2017-12-17T04:29:13.380Z,1009.65
2017-12-17T04:30:34.954Z,1009.62
2017-12-17T04:31:14.214Z,1009.62
2017-12-17T04:32:14.630Z,1009.62
2017-12-17T04:33:15.050Z,1009.61
2017-12-17T04:34:15.467Z,1009.65
2017-12-17T04:35:15.895Z,1009.61
2017-12-17T04:36:37.465Z,1009.62
2017-12-17T04:37:16.728Z,1009.63
2017-12-17T04:38:17.150Z,1009.67
2017-12-17T04:39:17.572Z,1009.68
2017-12-17T04:40:17.985Z,1009.66
2017-12-17T04:41:18.409Z,1009.64
2017-12-17T04:42:40.033Z,1009.66
2017-12-17T04:43:19.246Z,1009.67
2017-12-17T04:44:19.682Z,1009.66
2017-12-17T04:45:20.095Z,1009.77
2017-12-17T04:46:20.514Z,1009.80
2017-12-17T04:47:20.930Z,1009.78
2017-12-17T04:48:42.512Z,1009.81
2017-12-17T04:49:21.767Z,1009.78
2017-12-17T04:50:22.191Z,1009.81
2017-12-17T04:51:22.654Z,1009.80
2017-12-17T04:52:23.026Z,1009.82
2017-12-17T04:53:23.441Z,1009.86
2017-12-17T04:54:45.021Z,1009.84
2017-12-17T04:55:24.287Z,1009.85
2017-12-17T04:56:24.704Z,1009.91
2017-12-17T04:57:25.129Z,1009.88
2017-12-17T04:58:25.544Z,1009.90
2017-12-17T04:59:25.966Z,1009.91
2017-12-17T05:00:47.574Z,1009.91
2017-12-17T05:01:26.797Z,1009.91
2017-12-17T05:02:27.223Z,1009.96
2017-12-17T05:03:27.643Z,1009.91
2017-12-17T05:04:28.066Z,1009.98
2017-12-17T05:05:28.476Z,1009.95
2017-12-17T05:06:50.052Z,1009.90
2017-12-17T05:07:29.329Z,1009.92
2017-12-17T05:08:29.747Z,1009.96
2017-12-17T05:09:30.165Z,1009.96
2017-12-17T05:10:30.589Z,1009.91
2017-12-17T05:11:31.013Z,1009.95
2017-12-17T05:12:52.578Z,1009.96
2017-12-17T05:13:31.844Z,1009.98
2017-12-17T05:14:32.268Z,1009.95
2017-12-17T05:15:32.687Z,1009.98
2017-12-17T05:16:33.128Z,1010.02
2017-12-17T05:17:33.525Z,1010.02
2017-12-17T05:18:55.095Z,1010.06
2017-12-17T05:19:34.366Z,1010.10
2017-12-17T05:20:34.786Z,1010.10
2017-12-17T05:21:35.198Z,1010.10
2017-12-17T05:22:35.614Z,1010.14
2017-12-17T05:23:36.034Z,1010.16
2017-12-17T05:24:57.611Z,1010.12
2017-12-17T05:25:36.886Z,1010.18
2017-12-17T05:26:37.317Z,1010.17
2017-12-17T05:27:37.718Z,1010.20
2017-12-17T05:28:38.139Z,1010.24
2017-12-17T05:29:38.556Z,1010.29
2017-12-17T05:31:00.138Z,1010.29
2017-12-17T05:31:39.443Z,1010.31
2017-12-17T05:32:39.899Z,1010.32
2017-12-17T05:33:40.232Z,1010.32
2017-12-17T05:34:40.650Z,1010.34
2017-12-17T05:35:41.067Z,1010.38
2017-12-17T05:37:02.639Z,1010.40
2017-12-17T05:37:41.904Z,1010.38
2017-12-17T05:38:42.324Z,1010.39
2017-12-17T05:39:42.754Z,1010.43
2017-12-17T05:40:43.184Z,1010.42
2017-12-17T05:41:43.587Z,1010.49
2017-12-17T05:43:05.161Z,1010.50
2017-12-17T05:43:44.422Z,1010.54
2017-12-17T05:44:44.843Z,1010.58
2017-12-17T05:45:45.268Z,1010.59
2017-12-17T05:46:45.679Z,1010.55
2017-12-17T05:47:46.102Z,1010.60
2017-12-17T05:49:07.671Z,1010.57
2017-12-17T05:49:46.940Z,1010.58
2017-12-17T05:50:47.368Z,1010.62
2017-12-17T05:51:47.784Z,1010.63
2017-12-17T05:52:48.201Z,1010.58
2017-12-17T05:53:48.618Z,1010.60
2017-12-17T05:55:10.218Z,1010.65
2017-12-17T05:55:49.463Z,1010.67
2017-12-17T05:56:49.874Z,1010.68
2017-12-17T05:57:50.291Z,1010.68
2017-12-17T05:58:50.714Z,1010.75
2017-12-17T05:59:51.134Z,1010.69
2017-12-17T06:01:12.705Z,1010.73
2017-12-17T06:01:51.976Z,1010.73
2017-12-17T06:02:52.399Z,1010.74
2017-12-17T06:03:52.818Z,1010.75
2017-12-17T06:04:53.236Z,1010.76
2017-12-17T06:05:53.656Z,1010.73
2017-12-17T06:07:15.230Z,1010.74
2017-12-17T06:07:54.484Z,1010.72
2017-12-17T06:08:54.906Z,1010.72
2017-12-17T06:09:55.337Z,1010.72
2017-12-17T06:10:55.751Z,1010.71
2017-12-17T06:11:56.157Z,1010.71
2017-12-17T06:13:17.734Z,1010.67
2017-12-17T06:13:57.013Z,1010.73
2017-12-17T06:14:57.430Z,1010.73
2017-12-17T06:15:57.844Z,1010.67
2017-12-17T06:16:58.264Z,1010.72
2017-12-17T06:17:58.693Z,1010.71
2017-12-17T06:19:20.274Z,1010.70
2017-12-17T06:19:59.523Z,1010.70
2017-12-17T06:20:59.935Z,1010.75
2017-12-17T06:22:00.365Z,1010.72
2017-12-17T06:23:00.774Z,1010.77
2017-12-17T06:24:01.196Z,1010.79
2017-12-17T06:25:22.772Z,1010.82
2017-12-17T06:26:02.035Z,1010.79
2017-12-17T06:27:02.454Z,1010.80
2017-12-17T06:28:02.876Z,1010.83
2017-12-17T06:29:03.289Z,1010.82
2017-12-17T06:30:03.717Z,1010.84
2017-12-17T06:31:25.295Z,1010.82
2017-12-17T06:32:04.557Z,1010.92
2017-12-17T06:33:04.966Z,1010.88
2017-12-17T06:34:05.384Z,1010.90
2017-12-17T06:35:05.804Z,1010.87
2017-12-17T06:36:06.222Z,1010.90
2017-12-17T06:37:27.800Z,1010.93
2017-12-17T06:38:07.064Z,1010.89
2017-12-17T06:39:07.478Z,1010.93
2017-12-17T06:40:07.910Z,1010.94
2017-12-17T06:41:08.326Z,1010.92
2017-12-17T06:42:08.745Z,1010.93
2017-12-17T06:43:30.322Z,1010.94
2017-12-17T06:44:09.592Z,1010.95
2017-12-17T06:45:09.999Z,1010.92
2017-12-17T06:46:10.427Z,1010.95
2017-12-17T06:47:10.841Z,1010.98
2017-12-17T06:48:11.258Z,1011.00
2017-12-17T06:49:32.832Z,1011.03
2017-12-17T06:50:12.155Z,1011.03
2017-12-17T06:51:12.523Z,1011.08
2017-12-17T06:52:12.933Z,1011.06
2017-12-17T06:53:13.354Z,1011.09
2017-12-17T06:54:13.772Z,1011.13
2017-12-17T06:55:35.355Z,1011.15
2017-12-17T06:56:14.615Z,1011.19
2017-12-17T06:57:15.036Z,1011.16
2017-12-17T06:58:15.455Z,1011.19
2017-12-17T06:59:15.880Z,1011.25
2017-12-17T07:00:16.286Z,1011.24
2017-12-17T07:01:37.863Z,1011.27
2017-12-17T07:02:17.128Z,1011.33
2017-12-17T07:03:17.546Z,1011.33
2017-12-17T07:04:17.960Z,1011.36
2017-12-17T07:05:18.378Z,1011.41
2017-12-17T07:06:18.803Z,1011.41
2017-12-17T07:07:40.378Z,1011.41
2017-12-17T07:08:19.639Z,1011.45
2017-12-17T07:09:20.061Z,1011.44
2017-12-17T07:10:20.564Z,1011.40
2017-12-17T07:11:20.903Z,1011.43
2017-12-17T07:12:21.329Z,1011.45
2017-12-17T07:13:42.897Z,1011.44
2017-12-17T07:14:22.156Z,1011.50
2017-12-17T07:15:22.577Z,1011.43
2017-12-17T07:16:22.994Z,1011.48
2017-12-17T07:17:23.413Z,1011.49
2017-12-17T07:18:23.840Z,1011.45
2017-12-17T07:19:45.412Z,1011.45
2017-12-17T07:20:24.681Z,1011.48
2017-12-17T07:21:25.100Z,1011.48
2017-12-17T07:22:25.518Z,1011.51
2017-12-17T07:23:25.937Z,1011.53
2017-12-17T07:24:26.354Z,1011.55
2017-12-17T07:25:47.925Z,1011.50
2017-12-17T07:26:27.190Z,1011.56
2017-12-17T07:27:27.620Z,1011.58
2017-12-17T07:28:28.039Z,1011.56
2017-12-17T07:29:28.447Z,1011.60
2017-12-17T07:30:28.868Z,1011.62
2017-12-17T07:31:50.448Z,1011.57
2017-12-17T07:32:29.719Z,1011.64
2017-12-17T07:33:30.139Z,1011.63
2017-12-17T07:34:30.558Z,1011.64
2017-12-17T07:35:30.969Z,1011.66
2017-12-17T07:36:31.389Z,1011.69
2017-12-17T07:37:52.966Z,1011.74
2017-12-17T07:38:32.221Z,1011.75
2017-12-17T07:39:32.641Z,1011.77
2017-12-17T07:40:33.064Z,1011.75
2017-12-17T07:41:33.484Z,1011.76
2017-12-17T07:42:33.900Z,1011.76
2017-12-17T07:43:55.474Z,1011.79
2017-12-17T07:44:34.744Z,1011.84
2017-12-17T07:45:35.161Z,1011.79
2017-12-17T07:46:35.586Z,1011.82
2017-12-17T07:47:36.006Z,1011.88
2017-12-17T07:48:36.418Z,1011.89
2017-12-17T07:49:57.994Z,1011.91
2017-12-17T07:50:37.252Z,1011.93
2017-12-17T07:51:37.689Z,1011.94
2017-12-17T07:52:38.103Z,1011.94
2017-12-17T07:53:38.524Z,1011.93
2017-12-17T07:54:38.939Z,1012.00
2017-12-17T07:56:00.507Z,1012.00
2017-12-17T07:56:39.777Z,1011.99
2017-12-17T07:57:40.204Z,1012.03
2017-12-17T07:58:40.616Z,1011.97
2017-12-17T07:59:41.056Z,1011.99
2017-12-17T08:00:41.449Z,1012.00
2017-12-17T08:02:03.019Z,1012.01
2017-12-17T08:02:42.282Z,1012.07
2017-12-17T08:03:42.720Z,1012.07
2017-12-17T08:04:43.140Z,1012.08
2017-12-17T08:05:43.555Z,1012.09
2017-12-17T08:06:43.975Z,1012.14
2017-12-17T08:08:05.549Z,1012.14
2017-12-17T08:08:44.805Z,1012.15
2017-12-17T08:09:45.234Z,1012.18
2017-12-17T08:10:45.692Z,1012.21
2017-12-17T08:11:46.063Z,1012.21
2017-12-17T08:12:46.506Z,1012.22
2017-12-17T08:14:08.061Z,1012.16
2017-12-17T08:14:47.334Z,1012.26
2017-12-17T08:15:47.748Z,1012.25
2017-12-17T08:16:48.179Z,1012.28
2017-12-17T08:17:48.581Z,1012.29
2017-12-17T08:18:49.028Z,1012.27
2017-12-17T08:20:10.591Z,1012.37
2017-12-17T08:20:49.831Z,1012.41
2017-12-17T08:21:50.320Z,1012.41
2017-12-17T08:22:50.672Z,1012.42
2017-12-17T08:23:51.104Z,1012.47
2017-12-17T08:24:51.524Z,1012.47
2017-12-17T08:26:13.113Z,1012.50
2017-12-17T08:26:52.347Z,1012.50
2017-12-17T08:27:52.784Z,1012.56
2017-12-17T08:28:53.192Z,1012.59
2017-12-17T08:29:53.615Z,1012.62
2017-12-17T08:30:54.041Z,1012.59
2017-12-17T08:32:15.606Z,1012.59
2017-12-17T08:32:54.875Z,1012.62
2017-12-17T08:33:55.290Z,1012.63
2017-12-17T08:34:55.717Z,1012.68
2017-12-17T08:35:56.124Z,1012.67
2017-12-17T08:36:56.548Z,1012.69
2017-12-17T08:38:18.121Z,1012.70
2017-12-17T08:38:57.385Z,1012.69
2017-12-17T08:39:57.811Z,1012.68
2017-12-17T08:40:58.241Z,1012.71
2017-12-17T08:41:58.647Z,1012.71
2017-12-17T08:42:59.062Z,1012.68
2017-12-17T08:44:20.641Z,1012.70
2017-12-17T08:44:59.908Z,1012.74
2017-12-17T08:46:00.324Z,1012.73
2017-12-17T08:47:00.750Z,1012.75
2017-12-17T08:48:01.180Z,1012.79
2017-12-17T08:49:01.587Z,1012.79
2017-12-17T08:50:23.161Z,1012.80
2017-12-17T08:51:02.416Z,1012.82
2017-12-17T08:52:02.841Z,1012.81
2017-12-17T08:53:03.260Z,1012.84
2017-12-17T08:54:03.682Z,1012.82
2017-12-17T08:55:04.093Z,1012.85
2017-12-17T08:56:25.669Z,1012.88
2017-12-17T08:57:04.936Z,1012.89
2017-12-17T08:58:05.359Z,1012.94
2017-12-17T08:59:05.805Z,1012.98
2017-12-17T09:00:06.213Z,1012.97
2017-12-17T09:01:06.619Z,1013.01
2017-12-17T09:02:28.198Z,1013.04
2017-12-17T09:03:07.461Z,1013.04
2017-12-17T09:04:07.877Z,1013.05
2017-12-17T09:05:08.325Z,1013.06
2017-12-17T09:06:08.726Z,1013.08
2017-12-17T09:07:09.147Z,1013.13
2017-12-17T09:08:30.711Z,1013.12
2017-12-17T09:09:09.970Z,1013.15
2017-12-17T09:10:10.399Z,1013.14
2017-12-17T09:11:10.812Z,1013.19
2017-12-17T09:12:11.251Z,1013.16
2017-12-17T09:13:11.672Z,1013.22
2017-12-17T09:14:33.231Z,1013.19
2017-12-17T09:15:12.497Z,1013.17
2017-12-17T09:16:12.929Z,1013.21
2017-12-17T09:17:13.335Z,1013.24
2017-12-17T09:18:13.755Z,1013.30
2017-12-17T09:19:14.170Z,1013.29
2017-12-17T09:20:35.745Z,1013.35
2017-12-17T09:21:15.009Z,1013.39
2017-12-17T09:22:15.428Z,1013.40
2017-12-17T09:23:15.850Z,1013.44
2017-12-17T09:24:16.270Z,1013.43
2017-12-17T09:25:16.694Z,1013.47
2017-12-17T09:26:38.266Z,1013.46
2017-12-17T09:27:17.537Z,1013.47
2017-12-17T09:28:17.958Z,1013.46
2017-12-17T09:29:18.368Z,1013.47
2017-12-17T09:30:18.790Z,1013.46
2017-12-17T09:31:19.210Z,1013.51
2017-12-17T09:32:40.785Z,1013.46
2017-12-17T09:33:20.240Z,1013.48
2017-12-17T09:34:20.470Z,1013.49
2017-12-17T09:35:20.881Z,1013.45
2017-12-17T09:36:21.325Z,1013.45
2017-12-17T09:37:21.748Z,1013.46
2017-12-17T09:38:43.317Z,1013.48
2017-12-17T09:39:22.568Z,1013.46
2017-12-17T09:40:23.004Z,1013.48
2017-12-17T09:41:23.409Z,1013.48
2017-12-17T09:42:23.828Z,1013.51
2017-12-17T09:43:24.244Z,1013.52
2017-12-17T09:44:45.825Z,1013.51
2017-12-17T09:45:25.085Z,1013.52
2017-12-17T09:46:25.510Z,1013.57
2017-12-17T09:47:26.033Z,1013.54
2017-12-17T09:48:26.354Z,1013.54
2017-12-17T09:49:26.763Z,1013.53
2017-12-17T09:50:48.346Z,1013.56
2017-12-17T09:51:27.610Z,1013.53
2017-12-17T09:52:28.027Z,1013.61
2017-12-17T09:53:28.467Z,1013.51
2017-12-17T09:54:28.880Z,1013.54
2017-12-17T09:55:29.300Z,1013.56
2017-12-17T09:56:50.865Z,1013.54
2017-12-17T09:57:30.129Z,1013.55
2017-12-17T09:58:30.546Z,1013.61
2017-12-17T09:59:30.970Z,1013.60
2017-12-17T10:00:31.383Z,1013.66
2017-12-17T10:01:31.808Z,1013.65
2017-12-17T10:02:53.384Z,1013.72
2017-12-17T10:03:32.664Z,1013.76
2017-12-17T10:04:33.078Z,1013.76
2017-12-17T10:05:33.544Z,1013.77
2017-12-17T10:06:33.913Z,1013.74
2017-12-17T10:07:34.339Z,1013.80
2017-12-17T10:08:55.912Z,1013.82
2017-12-17T10:09:35.167Z,1013.77
2017-12-17T10:10:35.582Z,1013.81
2017-12-17T10:11:36.022Z,1013.83
2017-12-17T10:12:36.450Z,1013.79
2017-12-17T10:13:36.846Z,1013.75
2017-12-17T10:14:58.438Z,1013.74
2017-12-17T10:15:37.690Z,1013.75
2017-12-17T10:16:38.113Z,1013.80
2017-12-17T10:17:38.529Z,1013.73
2017-12-17T10:18:38.950Z,1013.77
2017-12-17T10:19:39.368Z,1013.77
2017-12-17T10:21:00.941Z,1013.78
2017-12-17T10:21:40.222Z,1013.78
2017-12-17T10:22:40.633Z,1013.81
2017-12-17T10:23:41.051Z,1013.79
2017-12-17T10:24:41.473Z,1013.80
2017-12-17T10:25:41.892Z,1013.82
2017-12-17T10:27:03.463Z,1013.84
2017-12-17T10:27:42.727Z,1013.86
2017-12-17T10:28:43.140Z,1013.92
2017-12-17T10:29:43.566Z,1013.87
2017-12-17T10:30:43.987Z,1013.91
2017-12-17T10:31:44.415Z,1013.99
2017-12-17T10:33:05.989Z,1013.95
2017-12-17T10:33:45.250Z,1013.97
2017-12-17T10:34:45.687Z,1014.02
2017-12-17T10:35:46.094Z,1013.97
2017-12-17T10:36:46.513Z,1013.96
2017-12-17T10:37:46.931Z,1013.98
2017-12-17T10:39:08.501Z,1013.93
2017-12-17T10:39:47.765Z,1013.97
2017-12-17T10:40:48.185Z,1013.99
2017-12-17T10:41:48.606Z,1013.96
2017-12-17T10:42:49.123Z,1014.03
2017-12-17T10:43:49.461Z,1014.01
2017-12-17T10:45:11.026Z,1014.07
2017-12-17T10:45:50.280Z,1014.02
2017-12-17T10:46:50.697Z,1014.03
2017-12-17T10:47:51.128Z,1014.03
2017-12-17T10:48:51.551Z,1014.00
2017-12-17T10:49:51.968Z,1014.01
2017-12-17T10:51:13.554Z,1014.08
2017-12-17T10:51:52.812Z,1014.08
2017-12-17T10:52:53.231Z,1014.12
2017-12-17T10:53:53.655Z,1014.13
2017-12-17T10:54:54.150Z,1014.12
2017-12-17T10:55:54.501Z,1014.11
2017-12-17T10:57:16.072Z,1014.13
2017-12-17T10:57:55.336Z,1014.08
2017-12-17T10:58:55.752Z,1014.16
2017-12-17T10:59:56.258Z,1014.13
2017-12-17T11:00:56.603Z,1014.13
2017-12-17T11:01:57.897Z,1014.15
2017-12-17T11:03:18.595Z,1014.11
2017-12-17T11:03:57.913Z,1014.13
2017-12-17T11:04:58.290Z,1014.17
2017-12-17T11:05:58.709Z,1014.14
2017-12-17T11:06:59.126Z,1014.15
2017-12-17T11:07:59.551Z,1014.16
2017-12-17T11:09:21.135Z,1014.15
2017-12-17T11:10:00.385Z,1014.14
2017-12-17T11:11:00.802Z,1014.16
2017-12-17T11:12:01.233Z,1014.15
2017-12-17T11:13:01.655Z,1014.16
2017-12-17T11:14:02.080Z,1014.12
2017-12-17T11:15:23.734Z,1014.15
2017-12-17T11:16:02.914Z,1014.17
2017-12-17T11:17:03.345Z,1014.15
2017-12-17T11:18:03.757Z,1014.20
2017-12-17T11:19:04.193Z,1014.24
2017-12-17T11:20:04.611Z,1014.17
2017-12-17T11:21:26.189Z,1014.26
2017-12-17T11:22:05.449Z,1014.22
2017-12-17T11:23:05.863Z,1014.30
2017-12-17T11:24:06.297Z,1014.23
2017-12-17T11:25:06.728Z,1014.24
2017-12-17T11:26:07.136Z,1014.23
2017-12-17T11:27:28.711Z,1014.29
2017-12-17T11:28:07.975Z,1014.29
2017-12-17T11:29:08.388Z,1014.21
2017-12-17T11:30:08.814Z,1014.28
2017-12-17T11:31:09.230Z,1014.33
2017-12-17T11:32:09.695Z,1014.30
2017-12-17T11:33:31.237Z,1014.34
2017-12-17T11:34:10.496Z,1014.30
2017-12-17T11:35:10.916Z,1014.36
2017-12-17T11:36:11.347Z,1014.35
2017-12-17T11:37:11.764Z,1014.39
2017-12-17T11:38:12.194Z,1014.43
2017-12-17T11:39:33.771Z,1014.37
2017-12-17T11:40:13.025Z,1014.43
2017-12-17T11:41:13.467Z,1014.44
2017-12-17T11:42:13.887Z,1014.43
2017-12-17T11:43:14.282Z,1014.46
2017-12-17T11:44:14.715Z,1014.45
2017-12-17T11:45:36.298Z,1014.45
2017-12-17T11:46:15.554Z,1014.45
2017-12-17T11:47:15.972Z,1014.46
2017-12-17T11:48:16.397Z,1014.49
2017-12-17T11:49:16.825Z,1014.44
2017-12-17T11:50:17.231Z,1014.44
2017-12-17T11:51:38.805Z,1014.47
2017-12-17T11:52:18.139Z,1014.44
2017-12-17T11:53:18.509Z,1014.43
2017-12-17T11:54:18.922Z,1014.42
2017-12-17T11:55:19.342Z,1014.45
2017-12-17T11:56:19.758Z,1014.51
2017-12-17T11:57:41.331Z,1014.49
2017-12-17T11:58:20.600Z,1014.47
2017-12-17T11:59:21.041Z,1014.47
2017-12-17T12:00:21.446Z,1014.54
2017-12-17T12:01:21.864Z,1014.53
2017-12-17T12:02:22.290Z,1014.59
2017-12-17T12:03:43.867Z,1014.59
2017-12-17T12:04:23.139Z,1014.57
2017-12-17T12:05:23.553Z,1014.59
2017-12-17T12:06:23.973Z,1014.62
2017-12-17T12:07:24.386Z,1014.58
2017-12-17T12:08:24.804Z,1014.63
2017-12-17T12:09:46.383Z,1014.64
2017-12-17T12:10:25.653Z,1014.66